Time;durP1;ratioP1;P1;durP2;ratioP2;P2;SDS_P1;SDS_P2;PMS_P1;PMS_P2;Temp;Humidity;BMP_temperature;BMP_pressure;BME280_temperature;BME280_humidity;BME280_pressure;Samples;Min_cycle;Max_cycle;Signal;HPM_P1;HPM_P2
2024/01/15 00:00:55;;;;;;;27.70;14.30;;;1.90;99.90;;;;;;5015027;28;20290;-59
2024/01/15 00:03:22;;;;;;;26.43;13.57;;;2.00;99.90;;;;;;5014917;28;20265;-57
2024/01/15 00:05:50;;;;;;;29.00;14.50;;;1.90;99.90;;;;;;5014532;28;20211;-57
2024/01/15 00:08:16;;;;;;;29.63;14.83;;;1.80;99.90;;;;;;5014774;28;20280;-57
2024/01/15 00:10:43;;;;;;;28.37;13.73;;;1.80;99.90;;;;;;5014777;28;20227;-56
2024/01/15 00:13:10;;;;;;;29.13;13.73;;;1.80;99.90;;;;;;5015093;28;20206;-58
2024/01/15 00:15:37;;;;;;;24.33;13.77;;;2.40;99.90;;;;;;5014850;28;20214;-58
2024/01/15 00:18:04;;;;;;;25.97;14.27;;;1.90;99.90;;;;;;5015074;28;20617;-56
2024/01/15 00:20:30;;;;;;;27.20;14.13;;;1.90;99.90;;;;;;5014950;28;20724;-57
2024/01/15 00:22:58;;;;;;;23.23;13.57;;;1.90;99.90;;;;;;5014665;28;20207;-57
2024/01/15 00:25:25;;;;;;;25.43;13.50;;;1.90;99.90;;;;;;5014713;28;20218;-56
2024/01/15 00:27:52;;;;;;;25.57;14.40;;;2.00;99.90;;;;;;5014668;28;20207;-57
2024/01/15 00:30:18;;;;;;;24.73;13.70;;;2.00;99.90;;;;;;5014667;28;20223;-58
2024/01/15 00:32:45;;;;;;;25.77;13.97;;;2.10;99.90;;;;;;5006735;28;20199;-57
2024/01/15 00:35:11;;;;;;;26.00;13.90;;;2.10;99.90;;;;;;5014516;28;20203;-61
2024/01/15 00:37:39;;;;;;;26.73;13.57;;;2.20;99.90;;;;;;5014288;28;20261;-60
2024/01/15 00:40:08;;;;;;;29.90;14.40;;;2.20;99.90;;;;;;5014240;28;20227;-61
2024/01/15 00:42:35;;;;;;;24.50;13.50;;;2.20;99.90;;;;;;5014209;28;20236;-61
2024/01/15 00:45:02;;;;;;;25.17;13.13;;;2.20;99.90;;;;;;5013920;28;20701;-60
2024/01/15 00:47:29;;;;;;;26.73;13.70;;;2.20;99.90;;;;;;5013760;28;20211;-60
2024/01/15 00:49:55;;;;;;;23.83;13.60;;;2.20;99.90;;;;;;5013688;28;20234;-60
2024/01/15 00:52:22;;;;;;;25.80;14.60;;;2.20;99.90;;;;;;5014013;28;20203;-61
2024/01/15 00:54:49;;;;;;;25.07;13.83;;;2.20;99.90;;;;;;5013838;28;20209;-61
2024/01/15 00:57:18;;;;;;;25.97;13.77;;;2.20;99.90;;;;;;5014046;28;20203;-61
2024/01/15 00:59:45;;;;;;;30.60;15.53;;;2.20;99.90;;;;;;5013741;28;20739;-61
2024/01/15 01:02:12;;;;;;;26.87;14.80;;;2.10;99.90;;;;;;5013859;28;20213;-61
2024/01/15 01:04:39;;;;;;;27.13;14.00;;;2.00;99.90;;;;;;5013381;28;20207;-60
2024/01/15 01:07:05;;;;;;;24.93;13.20;;;1.90;99.90;;;;;;5013616;28;20582;-61
2024/01/15 01:09:32;;;;;;;22.73;13.00;;;1.90;99.90;;;;;;5013668;28;20217;-60
2024/01/15 01:11:59;;;;;;;28.20;14.23;;;1.80;99.90;;;;;;5013648;28;20625;-60
2024/01/15 01:14:27;;;;;;;25.47;13.03;;;1.80;99.90;;;;;;5013354;28;20261;-61
2024/01/15 01:16:54;;;;;;;23.50;13.40;;;1.80;99.90;;;;;;5013516;28;20261;-61
2024/01/15 01:19:20;;;;;;;25.83;13.97;;;1.80;99.90;;;;;;5013318;28;20222;-61
2024/01/15 01:21:47;;;;;;;24.67;13.37;;;1.80;99.90;;;;;;5005553;28;20277;-60
2024/01/15 01:24:14;;;;;;;30.47;14.80;;;1.80;99.90;;;;;;5013256;28;20203;-60
2024/01/15 01:26:40;;;;;;;24.67;13.47;;;1.80;99.90;;;;;;5013412;28;20262;-60
2024/01/15 01:29:07;;;;;;;25.53;13.60;;;1.80;99.90;;;;;;5013435;28;20207;-60
2024/01/15 01:31:35;;;;;;;24.93;12.93;;;1.90;99.90;;;;;;5012975;28;20231;-60
2024/01/15 01:34:01;;;;;;;25.33;13.77;;;1.90;99.90;;;;;;5013108;28;20261;-60
2024/01/15 01:36:28;;;;;;;26.20;13.53;;;1.90;99.90;;;;;;5013154;28;20301;-60
2024/01/15 01:38:55;;;;;;;23.63;12.80;;;1.90;99.90;;;;;;5013214;28;20223;-60
2024/01/15 01:41:24;;;;;;;24.40;13.30;;;2.00;99.90;;;;;;5013017;28;20260;-61
2024/01/15 01:43:50;;;;;;;22.43;11.83;;;2.10;99.90;;;;;;5005261;28;20253;-60
2024/01/15 01:46:18;;;;;;;25.40;13.17;;;2.10;99.90;;;;;;5013218;28;20210;-61
2024/01/15 01:48:46;;;;;;;22.73;12.33;;;2.20;99.90;;;;;;5012921;28;20203;-61
2024/01/15 01:51:13;;;;;;;23.27;12.17;;;2.20;99.90;;;;;;5012860;28;20231;-61
2024/01/15 01:53:40;;;;;;;20.53;12.10;;;2.20;99.90;;;;;;5013271;28;20218;-60
2024/01/15 01:56:08;;;;;;;20.40;11.73;;;2.20;99.90;;;;;;5013433;28;20580;-60
2024/01/15 01:58:34;;;;;;;18.60;10.57;;;2.20;99.90;;;;;;5012379;28;20238;-62
2024/01/15 02:01:01;;;;;;;20.60;11.40;;;2.30;99.90;;;;;;5012695;28;20229;-62
2024/01/15 02:03:29;;;;;;;18.07;9.87;;;2.40;99.90;;;;;;5012420;28;20218;-60
2024/01/15 02:05:57;;;;;;;18.13;9.37;;;2.50;99.90;;;;;;5012547;28;20202;-60
2024/01/15 02:08:24;;;;;;;17.03;9.00;;;2.50;99.90;;;;;;5012497;28;20214;-59
2024/01/15 02:10:51;;;;;;;16.20;8.17;;;2.50;99.90;;;;;;5012656;28;20314;-60
2024/01/15 02:13:18;;;;;;;15.53;8.10;;;2.60;99.90;;;;;;5012767;28;20210;-60
2024/01/15 02:15:45;;;;;;;15.93;8.30;;;2.60;99.90;;;;;;5012297;28;20206;-60
2024/01/15 02:18:12;;;;;;;13.97;7.73;;;2.60;99.90;;;;;;5012170;28;20677;-60
2024/01/15 02:20:38;;;;;;;16.17;8.23;;;2.60;99.90;;;;;;5012098;28;20231;-61
2024/01/15 02:23:10;;;;;;;13.83;8.07;;;2.60;99.90;;;;;;5012308;28;20207;-60
2024/01/15 02:25:38;;;;;;;14.27;8.03;;;2.70;99.90;;;;;;5011895;28;20238;-61
2024/01/15 02:28:06;;;;;;;13.73;7.47;;;2.70;99.90;;;;;;5011937;28;20202;-61
2024/01/15 02:30:33;;;;;;;11.90;7.40;;;2.80;99.90;;;;;;5012070;28;20226;-61
2024/01/15 02:33:00;;;;;;;12.97;7.03;;;2.80;99.90;;;;;;5012101;28;20203;-61
2024/01/15 02:35:26;;;;;;;12.43;7.27;;;2.80;99.90;;;;;;5011647;28;20637;-59
2024/01/15 02:37:53;;;;;;;14.47;7.63;;;2.80;99.90;;;;;;5012009;28;20202;-62
2024/01/15 02:40:21;;;;;;;14.90;7.77;;;2.80;99.90;;;;;;5011824;28;20222;-62
2024/01/15 02:42:48;;;;;;;15.00;8.10;;;3.00;99.90;;;;;;5011671;28;20587;-60
2024/01/15 02:45:14;;;;;;;14.33;7.40;;;3.00;99.90;;;;;;5011961;28;20203;-61
2024/01/15 02:47:41;;;;;;;16.00;8.23;;;3.00;99.90;;;;;;5011616;28;20597;-60
2024/01/15 02:50:08;;;;;;;15.67;8.43;;;3.10;99.90;;;;;;5011715;28;20571;-60
2024/01/15 02:52:35;;;;;;;14.67;8.60;;;3.10;99.90;;;;;;5011573;28;20634;-60
2024/01/15 02:55:01;;;;;;;12.73;7.63;;;3.20;99.90;;;;;;5011714;28;20673;-60
2024/01/15 02:57:29;;;;;;;14.83;7.77;;;3.20;99.90;;;;;;5011518;28;20596;-61
2024/01/15 02:59:56;;;;;;;11.67;7.00;;;3.30;99.90;;;;;;5011535;28;20222;-60
2024/01/15 03:02:23;;;;;;;13.40;7.63;;;3.20;99.90;;;;;;5011611;28;20215;-59
2024/01/15 03:04:50;;;;;;;11.10;7.30;;;3.20;99.90;;;;;;5003620;28;20568;-60
2024/01/15 03:07:17;;;;;;;13.77;7.67;;;3.20;99.90;;;;;;5011589;28;20202;-61
2024/01/15 03:09:43;;;;;;;15.10;7.97;;;3.20;99.90;;;;;;5011231;28;20214;-61
2024/01/15 03:12:11;;;;;;;15.93;8.23;;;3.20;99.90;;;;;;5011675;28;20669;-61
2024/01/15 03:14:39;;;;;;;13.27;7.63;;;3.30;99.90;;;;;;5011338;28;20207;-60
2024/01/15 03:17:05;;;;;;;14.23;7.50;;;3.30;99.90;;;;;;5011578;28;20207;-60
2024/01/15 03:19:35;;;;;;;12.63;7.53;;;3.30;99.90;;;;;;5011192;28;20219;-60
2024/01/15 03:22:03;;;;;;;12.03;7.20;;;3.40;99.90;;;;;;5011436;28;20585;-59
2024/01/15 03:24:30;;;;;;;13.97;7.77;;;3.40;99.90;;;;;;5011121;28;20269;-60
2024/01/15 03:26:56;;;;;;;12.13;7.07;;;3.30;99.90;;;;;;5011335;28;20199;-60
2024/01/15 03:29:23;;;;;;;13.90;7.47;;;3.30;99.90;;;;;;5011657;28;20206;-61
2024/01/15 03:31:51;;;;;;;13.10;7.57;;;3.30;99.90;;;;;;5004328;28;20269;-61
2024/01/15 03:34:18;;;;;;;13.60;7.87;;;3.30;99.90;;;;;;5013142;28;20206;-61
2024/01/15 03:36:45;;;;;;;14.00;7.93;;;3.20;99.90;;;;;;5012125;28;20263;-61
2024/01/15 03:39:11;;;;;;;11.90;6.97;;;3.10;99.90;;;;;;5012673;28;20226;-60
2024/01/15 03:41:38;;;;;;;12.40;7.17;;;3.00;99.90;;;;;;5012557;28;20667;-60
2024/01/15 03:44:05;;;;;;;12.40;7.10;;;3.00;99.90;;;;;;5011257;28;20665;-60
2024/01/15 03:46:32;;;;;;;13.47;7.47;;;3.10;99.90;;;;;;5011153;28;20294;-60
2024/01/15 03:49:00;;;;;;;12.37;7.17;;;3.00;99.90;;;;;;5011264;28;20677;-60
2024/01/15 03:51:26;;;;;;;11.10;6.67;;;2.90;99.90;;;;;;5028522;22;20296;-53
2024/01/15 03:53:53;;;;;;;10.57;6.67;;;2.90;99.90;;;;;;4999516;28;20609;-53
2024/01/15 03:56:20;;;;;;;11.10;6.47;;;2.90;99.90;;;;;;4999281;28;20696;-51
2024/01/15 03:58:46;;;;;;;11.57;6.67;;;2.90;99.90;;;;;;5002447;28;20203;-54
2024/01/15 04:01:13;;;;;;;11.53;7.07;;;2.90;99.90;;;;;;5002696;28;20230;-53
2024/01/15 04:03:40;;;;;;;12.57;6.63;;;2.90;99.90;;;;;;5000792;28;20639;-54
2024/01/15 04:06:08;;;;;;;11.30;6.47;;;2.90;99.90;;;;;;4999012;28;20213;-53
2024/01/15 04:08:34;;;;;;;11.47;6.73;;;2.90;99.90;;;;;;5000426;28;20215;-54
2024/01/15 04:11:01;;;;;;;11.73;6.70;;;2.90;99.90;;;;;;5002837;28;20219;-53
2024/01/15 04:13:28;;;;;;;12.10;6.57;;;3.00;99.90;;;;;;5002681;28;20415;-52
2024/01/15 04:15:55;;;;;;;12.07;7.30;;;2.90;99.90;;;;;;4999102;28;20207;-52
2024/01/15 04:18:21;;;;;;;11.57;6.97;;;2.90;99.90;;;;;;4999207;28;20210;-53
2024/01/15 04:20:48;;;;;;;14.47;7.17;;;2.80;99.90;;;;;;5001780;28;20219;-53
2024/01/15 04:23:16;;;;;;;12.87;6.63;;;2.90;99.90;;;;;;5006142;28;20215;-53
2024/01/15 04:25:43;;;;;;;11.93;6.57;;;2.90;99.90;;;;;;5003875;28;20243;-52
2024/01/15 04:28:09;;;;;;;9.77;6.07;;;3.00;99.90;;;;;;5002961;28;20254;-52
2024/01/15 04:30:37;;;;;;;10.80;6.70;;;3.10;99.90;;;;;;5004305;28;20223;-53
2024/01/15 04:33:04;;;;;;;11.97;6.83;;;3.10;99.90;;;;;;5005947;28;20214;-52
2024/01/15 04:35:31;;;;;;;14.63;6.97;;;3.00;99.90;;;;;;5005276;28;20215;-53
2024/01/15 04:37:58;;;;;;;10.77;6.67;;;3.00;99.90;;;;;;5002620;28;20222;-52
2024/01/15 04:40:27;;;;;;;12.93;6.97;;;3.10;99.90;;;;;;5002488;28;20227;-52
2024/01/15 04:42:54;;;;;;;12.57;6.17;;;3.10;99.90;;;;;;4994781;28;20216;-52
2024/01/15 04:45:22;;;;;;;11.17;6.47;;;3.00;99.90;;;;;;5002325;28;20536;-54
2024/01/15 04:47:49;;;;;;;12.37;6.67;;;3.00;99.90;;;;;;5005914;28;20566;-52
2024/01/15 04:50:16;;;;;;;12.20;7.27;;;3.00;99.90;;;;;;5006324;28;20274;-53
2024/01/15 04:52:43;;;;;;;9.67;6.07;;;3.00;99.90;;;;;;5003360;28;20584;-53
2024/01/15 04:55:10;;;;;;;10.83;5.93;;;3.00;99.90;;;;;;5002167;28;20207;-54
2024/01/15 04:57:38;;;;;;;10.83;6.57;;;3.00;99.90;;;;;;5003414;28;20215;-54
2024/01/15 05:00:06;;;;;;;11.53;6.57;;;3.00;99.90;;;;;;5005367;28;20701;-54
2024/01/15 05:02:33;;;;;;;11.07;6.20;;;3.00;99.90;;;;;;5004506;28;20249;-54
2024/01/15 05:04:59;;;;;;;14.60;7.03;;;3.00;99.90;;;;;;5001874;28;20217;-53
2024/01/15 05:07:26;;;;;;;12.97;6.60;;;3.10;99.90;;;;;;5002152;28;20215;-55
2024/01/15 05:09:53;;;;;;;12.17;6.03;;;3.10;99.90;;;;;;4993811;28;20208;-52
2024/01/15 05:12:19;;;;;;;10.23;6.00;;;3.20;99.90;;;;;;5001825;28;20203;-51
2024/01/15 05:14:47;;;;;;;10.10;6.20;;;3.20;99.90;;;;;;5003831;28;20208;-53
2024/01/15 05:17:14;;;;;;;12.13;6.67;;;3.10;99.90;;;;;;5005426;28;20203;-54
2024/01/15 05:19:40;;;;;;;10.60;6.80;;;3.20;99.90;;;;;;5003425;28;20207;-52
2024/01/15 05:22:07;;;;;;;12.57;6.97;;;3.30;99.90;;;;;;5001436;28;20243;-53
2024/01/15 05:24:34;;;;;;;11.17;6.77;;;3.40;99.90;;;;;;5002261;28;20203;-52
2024/01/15 05:27:00;;;;;;;10.77;6.03;;;3.50;99.90;;;;;;5005223;28;20203;-54
2024/01/15 05:29:27;;;;;;;11.87;6.90;;;3.50;99.90;;;;;;5005182;28;20214;-53
2024/01/15 05:31:55;;;;;;;10.23;6.43;;;3.50;99.90;;;;;;4993781;28;20732;-53
2024/01/15 05:34:22;;;;;;;10.53;6.00;;;3.60;99.90;;;;;;5000385;28;20211;-53
2024/01/15 05:36:49;;;;;;;10.10;5.90;;;3.60;99.90;;;;;;5004039;28;20227;-54
2024/01/15 05:39:15;;;;;;;12.03;6.53;;;3.60;99.90;;;;;;5004800;28;20210;-55
2024/01/15 05:41:42;;;;;;;11.67;6.50;;;3.40;99.90;;;;;;5002534;28;20226;-54
2024/01/15 05:44:09;;;;;;;9.37;6.17;;;3.30;99.90;;;;;;5001339;28;20204;-54
2024/01/15 05:46:36;;;;;;;10.23;5.50;;;3.20;99.90;;;;;;5002303;28;20309;-53
2024/01/15 05:49:04;;;;;;;11.37;6.20;;;3.20;99.90;;;;;;5004579;28;20199;-53
2024/01/15 05:51:30;;;;;;;10.73;6.30;;;3.20;99.90;;;;;;5004170;28;20235;-52
2024/01/15 05:53:57;;;;;;;9.63;5.90;;;3.20;99.90;;;;;;5000682;28;20688;-54
2024/01/15 05:56:25;;;;;;;12.53;6.13;;;3.20;99.90;;;;;;5000959;28;20215;-54
2024/01/15 05:58:51;;;;;;;9.87;5.77;;;2.80;99.90;;;;;;5004139;28;20203;-54
2024/01/15 06:01:18;;;;;;;8.87;5.40;;;2.60;99.90;;;;;;5004243;28;20226;-53
2024/01/15 06:03:45;;;;;;;14.60;7.77;;;2.40;99.90;;;;;;5002112;28;20289;-53
2024/01/15 06:06:13;;;;;;;10.37;5.83;;;2.40;99.90;;;;;;5001022;28;20258;-54
2024/01/15 06:08:40;;;;;;;12.43;6.27;;;2.60;99.90;;;;;;5002013;28;20211;-52
2024/01/15 06:11:07;;;;;;;9.67;5.53;;;2.80;99.90;;;;;;5004194;28;20226;-52
2024/01/15 06:13:34;;;;;;;10.57;5.90;;;3.00;99.90;;;;;;5003504;28;20203;-54
2024/01/15 06:16:01;;;;;;;9.00;5.50;;;3.10;99.90;;;;;;5000674;28;20575;-54
2024/01/15 06:18:27;;;;;;;10.73;6.17;;;3.20;99.90;;;;;;5000722;28;20616;-53
2024/01/15 06:20:54;;;;;;;10.73;6.23;;;3.30;99.90;;;;;;5003681;28;20603;-54
2024/01/15 06:23:22;;;;;;;11.67;6.93;;;3.40;99.90;;;;;;5003977;28;20207;-53
2024/01/15 06:25:49;;;;;;;11.10;5.87;;;3.40;99.90;;;;;;5001344;28;20218;-52
2024/01/15 06:28:15;;;;;;;9.73;6.27;;;3.40;99.90;;;;;;5000439;28;20208;-53
2024/01/15 06:30:42;;;;;;;11.97;5.93;;;3.50;99.90;;;;;;5002021;28;20224;-53
2024/01/15 06:33:09;;;;;;;8.93;5.43;;;3.50;99.90;;;;;;5004118;28;20423;-52
2024/01/15 06:35:35;;;;;;;9.27;5.73;;;3.50;99.90;;;;;;5002845;28;20207;-53
2024/01/15 06:38:02;;;;;;;10.27;5.60;;;3.50;99.90;;;;;;5000159;28;20211;-53
2024/01/15 06:40:30;;;;;;;10.57;5.70;;;3.50;99.90;;;;;;5000251;28;20239;-52
2024/01/15 06:42:57;;;;;;;12.73;8.00;;;3.50;99.90;;;;;;4992528;28;20216;-54
2024/01/15 06:45:24;;;;;;;10.37;5.70;;;3.40;99.90;;;;;;4999592;28;20560;-54
2024/01/15 06:47:50;;;;;;;10.90;5.93;;;3.50;99.90;;;;;;5002719;28;20208;-55
2024/01/15 06:50:17;;;;;;;11.63;6.20;;;3.50;99.90;;;;;;5003186;28;20249;-54
2024/01/15 06:52:44;;;;;;;13.87;7.43;;;3.50;99.90;;;;;;5001496;28;20206;-53
2024/01/15 06:55:10;;;;;;;11.80;6.87;;;3.50;99.90;;;;;;4999708;28;20230;-52
2024/01/15 06:57:38;;;;;;;16.20;7.70;;;3.70;99.90;;;;;;5000539;28;20701;-54
2024/01/15 07:00:08;;;;;;;15.43;7.23;;;3.80;99.90;;;;;;5003381;28;21960;-54
2024/01/15 07:02:34;;;;;;;10.10;5.70;;;3.80;99.90;;;;;;5002861;28;20217;-54
2024/01/15 07:05:01;;;;;;;11.17;7.10;;;3.70;99.90;;;;;;4999562;28;20200;-53
2024/01/15 07:07:29;;;;;;;9.83;5.63;;;3.70;99.90;;;;;;4999652;28;20210;-52
2024/01/15 07:09:56;;;;;;;9.97;6.37;;;3.80;99.90;;;;;;5002653;28;20206;-54
2024/01/15 07:12:23;;;;;;;10.53;5.83;;;3.80;99.90;;;;;;5002902;28;20214;-53
2024/01/15 07:14:51;;;;;;;10.33;5.77;;;3.80;99.90;;;;;;5000091;28;20222;-54
2024/01/15 07:17:17;;;;;;;10.10;5.90;;;3.90;99.90;;;;;;4999560;28;20211;-54
2024/01/15 07:19:44;;;;;;;11.10;5.90;;;3.90;99.90;;;;;;5000963;28;20219;-56
2024/01/15 07:22:11;;;;;;;10.40;6.00;;;3.90;99.90;;;;;;5003233;28;20219;-53
2024/01/15 07:24:37;;;;;;;8.70;5.73;;;3.90;99.90;;;;;;4994714;28;20258;-53
2024/01/15 07:27:05;;;;;;;9.20;5.13;;;3.90;99.90;;;;;;5003045;28;20211;-52
2024/01/15 07:29:32;;;;;;;9.10;5.67;;;3.80;99.90;;;;;;5003234;28;20289;-53
2024/01/15 07:32:01;;;;;;;11.67;5.90;;;3.90;99.90;;;;;;4991623;28;20246;-54
2024/01/15 07:34:28;;;;;;;9.20;5.60;;;3.90;99.90;;;;;;4999310;28;20731;-53
2024/01/15 07:36:54;;;;;;;9.97;5.27;;;3.90;99.90;;;;;;5002580;28;20199;-52
2024/01/15 07:39:22;;;;;;;11.57;6.50;;;4.00;99.90;;;;;;5003636;28;20199;-52
2024/01/15 07:41:49;;;;;;;8.80;5.23;;;4.00;99.90;;;;;;5000466;28;20230;-52
2024/01/15 07:44:15;;;;;;;11.30;5.90;;;4.10;99.90;;;;;;4999422;28;20266;-52
2024/01/15 07:46:45;;;;;;;10.93;6.73;;;4.10;99.90;;;;;;4999550;28;20210;-53
2024/01/15 07:49:13;;;;;;;15.77;10.20;;;4.10;99.90;;;;;;5003126;28;20285;-54
2024/01/15 07:51:40;;;;;;;10.93;5.67;;;4.20;99.90;;;;;;5001638;28;20235;-54
2024/01/15 07:54:07;;;;;;;11.33;5.53;;;4.30;99.90;;;;;;4999121;28;20203;-52
2024/01/15 07:56:34;;;;;;;9.87;5.67;;;4.40;99.90;;;;;;5000135;28;20594;-53
2024/01/15 07:59:01;;;;;;;9.23;5.23;;;4.50;99.90;;;;;;5006426;28;20272;-53
2024/01/15 08:01:28;;;;;;;9.73;5.40;;;4.50;99.90;;;;;;5006400;28;20234;-53
2024/01/15 08:03:55;;;;;;;10.43;5.63;;;4.60;99.90;;;;;;5003312;28;20211;-52
2024/01/15 08:06:23;;;;;;;9.97;5.80;;;4.60;99.90;;;;;;5002944;28;20208;-52
2024/01/15 08:08:49;;;;;;;11.87;7.73;;;4.70;99.90;;;;;;5005095;28;20266;-54
2024/01/15 08:11:16;;;;;;;10.40;6.70;;;4.70;99.90;;;;;;5006126;28;20226;-53
2024/01/15 08:13:43;;;;;;;8.67;5.40;;;4.80;99.90;;;;;;5004851;28;20216;-53
2024/01/15 08:16:10;;;;;;;10.03;6.60;;;4.70;99.90;;;;;;5002747;28;20230;-53
2024/01/15 08:18:37;;;;;;;8.93;5.20;;;4.80;99.90;;;;;;5003243;28;20258;-53
2024/01/15 08:21:04;;;;;;;7.83;4.93;;;4.80;99.90;;;;;;5006187;28;20680;-53
2024/01/15 08:23:32;;;;;;;9.20;5.53;;;4.90;99.90;;;;;;5006172;28;20203;-53
2024/01/15 08:25:58;;;;;;;10.40;5.33;;;4.90;99.90;;;;;;5002359;28;20204;-53
2024/01/15 08:28:25;;;;;;;8.13;4.77;;;5.00;99.90;;;;;;5002478;28;20246;-52
2024/01/15 08:30:52;;;;;;;7.67;5.43;;;4.90;99.90;;;;;;5004665;28;20293;-53
2024/01/15 08:33:18;;;;;;;9.23;5.40;;;4.80;99.90;;;;;;5006182;28;20214;-52
2024/01/15 08:35:45;;;;;;;8.70;5.17;;;4.90;99.90;;;;;;5004104;28;20206;-54
2024/01/15 08:38:12;;;;;;;8.97;4.90;;;4.80;99.90;;;;;;5002725;28;20200;-53
2024/01/15 08:40:40;;;;;;;10.97;5.20;;;5.00;99.90;;;;;;5002366;28;20234;-54
2024/01/15 08:43:07;;;;;;;9.50;5.63;;;5.00;99.90;;;;;;4997936;28;20479;-57
2024/01/15 08:45:34;;;;;;;7.47;4.63;;;5.10;99.90;;;;;;4989882;28;20693;-59
2024/01/15 08:48:01;;;;;;;10.87;5.90;;;5.10;99.90;;;;;;4986181;28;20246;-58
2024/01/15 08:50:26;;;;;;;10.87;4.97;;;5.20;99.90;;;;;;4992078;28;20278;-57
2024/01/15 08:52:53;;;;;;;9.40;5.37;;;5.30;99.90;;;;;;4993214;28;20251;-60
2024/01/15 08:55:20;;;;;;;7.50;4.70;;;5.40;99.90;;;;;;4992310;28;20562;-56
2024/01/15 08:57:48;;;;;;;8.23;4.97;;;5.40;99.90;;;;;;4993564;28;20219;-59
2024/01/15 09:00:15;;;;;;;10.13;5.20;;;5.30;99.90;;;;;;4993823;28;20654;-59
2024/01/15 09:02:43;;;;;;;11.70;5.20;;;5.20;99.90;;;;;;5001896;28;20289;-58
2024/01/15 09:05:09;;;;;;;8.93;5.67;;;5.30;99.90;;;;;;4991631;28;20218;-60
2024/01/15 09:07:36;;;;;;;10.67;6.30;;;5.30;99.90;;;;;;4993517;28;20215;-54
2024/01/15 09:10:03;;;;;;;8.40;5.20;;;5.40;99.90;;;;;;4993555;28;20211;-53
2024/01/15 09:12:30;;;;;;;9.47;4.90;;;5.40;99.90;;;;;;4993855;28;20222;-54
2024/01/15 09:14:58;;;;;;;9.03;5.07;;;5.40;99.90;;;;;;4993370;28;20299;-53
2024/01/15 09:17:25;;;;;;;9.43;5.40;;;5.50;99.90;;;;;;4993647;28;20215;-52
2024/01/15 09:19:51;;;;;;;8.80;5.23;;;5.40;99.90;;;;;;4993237;28;20592;-53
2024/01/15 09:22:18;;;;;;;9.97;4.97;;;5.40;99.90;;;;;;4993298;28;20227;-51
2024/01/15 09:24:45;;;;;;;8.73;5.00;;;5.40;99.90;;;;;;4993536;28;20258;-54
2024/01/15 09:27:12;;;;;;;8.70;4.97;;;5.50;99.90;;;;;;4993475;28;20711;-53
2024/01/15 09:29:41;;;;;;;11.07;5.03;;;5.60;99.90;;;;;;4993395;28;20207;-53
2024/01/15 09:32:10;;;;;;;8.53;5.27;;;5.60;99.90;;;;;;4993091;28;20744;-54
2024/01/15 09:34:36;;;;;;;10.07;5.03;;;5.80;99.90;;;;;;4992951;28;20208;-52
2024/01/15 09:37:03;;;;;;;10.10;4.80;;;5.90;99.90;;;;;;4992874;28;20215;-54
2024/01/15 09:39:31;;;;;;;7.53;4.67;;;6.00;99.90;;;;;;4993218;28;20223;-56
2024/01/15 09:41:59;;;;;;;6.57;4.67;;;6.00;99.90;;;;;;4992604;28;20326;-54
2024/01/15 09:44:27;;;;;;;8.07;5.10;;;6.10;99.90;;;;;;4992731;28;20216;-54
2024/01/15 09:46:56;;;;;;;9.13;5.10;;;6.10;99.90;;;;;;4992680;28;20211;-54
2024/01/15 09:49:24;;;;;;;7.13;4.23;;;6.20;99.90;;;;;;4992991;28;20259;-54
2024/01/15 09:51:51;;;;;;;6.20;4.03;;;6.10;99.90;;;;;;5018588;22;20239;-58
2024/01/15 09:54:17;;;;;;;8.07;4.60;;;6.20;99.90;;;;;;5012937;28;20685;-57
2024/01/15 09:56:46;;;;;;;8.23;4.67;;;6.20;99.90;;;;;;5012684;28;20605;-58
2024/01/15 09:59:15;;;;;;;10.67;4.60;;;6.40;99.90;;;;;;5012948;28;20302;-57
2024/01/15 10:01:43;;;;;;;11.47;4.37;;;6.40;99.90;;;;;;5012869;28;20258;-58
2024/01/15 10:04:09;;;;;;;9.70;4.30;;;6.50;99.90;;;;;;5012646;28;20219;-58
2024/01/15 10:06:39;;;;;;;12.03;4.00;;;6.60;99.90;;;;;;5012593;28;20230;-58
2024/01/15 10:09:07;;;;;;;9.03;4.60;;;6.70;99.90;;;;;;5012667;28;20206;-58
2024/01/15 10:11:34;;;;;;;8.30;4.13;;;6.70;99.90;;;;;;5012501;28;20230;-57
2024/01/15 10:14:01;;;;;;;12.83;4.80;;;6.80;99.90;;;;;;5012422;28;20672;-58
2024/01/15 10:16:28;;;;;;;16.43;4.33;;;6.80;99.90;;;;;;5012670;28;20557;-58
2024/01/15 10:18:55;;;;;;;9.30;3.90;;;6.80;99.90;;;;;;5011776;28;20210;-58
2024/01/15 10:21:22;;;;;;;11.43;4.97;;;6.90;99.90;;;;;;5012228;28;20325;-58
2024/01/15 10:23:50;;;;;;;7.90;4.07;;;6.90;99.90;;;;;;5012396;28;20237;-58
2024/01/15 10:26:17;;;;;;;7.57;4.13;;;6.90;99.90;;;;;;5012675;28;20211;-58
2024/01/15 10:28:43;;;;;;;5.77;3.83;;;6.90;99.90;;;;;;5012328;28;20218;-55
2024/01/15 10:31:10;;;;;;;8.03;4.80;;;7.00;99.90;;;;;;5012376;28;20226;-57
2024/01/15 10:33:38;;;;;;;10.13;4.63;;;7.10;99.90;;;;;;5013113;28;20222;-58
2024/01/15 10:36:11;;;;;;;14.17;4.50;;;7.20;99.90;;;;;;5012298;28;20244;-57
2024/01/15 10:38:38;;;;;;;16.07;4.80;;;7.20;99.90;;;;;;5012657;28;20490;-58
2024/01/15 10:41:06;;;;;;;6.60;4.03;;;7.20;99.90;;;;;;4996397;28;20757;-58
2024/01/15 10:43:33;;;;;;;11.93;5.87;;;7.10;99.90;;;;;;5012362;28;20277;-58
2024/01/15 10:46:01;;;;;;;8.47;3.83;;;7.00;99.90;;;;;;5011854;28;20211;-58
2024/01/15 10:48:28;;;;;;;7.03;3.77;;;6.90;99.90;;;;;;5012522;28;20215;-57
2024/01/15 10:50:55;;;;;;;8.23;3.70;;;6.80;99.90;;;;;;5011941;28;20325;-58
2024/01/15 10:53:24;;;;;;;8.53;3.73;;;6.70;99.90;;;;;;5012142;28;20322;-57
2024/01/15 10:55:51;;;;;;;6.30;3.77;;;6.80;99.90;;;;;;5011561;28;20214;-58
2024/01/15 10:58:21;;;;;;;7.93;3.53;;;6.70;99.90;;;;;;5011766;28;20712;-58
2024/01/15 11:00:48;;;;;;;6.00;3.33;;;6.70;99.90;;;;;;5012013;28;20261;-58
2024/01/15 11:03:15;;;;;;;18.97;13.60;;;6.70;99.90;;;;;;5012444;28;20254;-58
2024/01/15 11:05:44;;;;;;;6.70;3.47;;;6.60;99.90;;;;;;5011609;28;20289;-58
2024/01/15 11:08:12;;;;;;;7.17;3.67;;;6.60;99.90;;;;;;5012303;28;20224;-57
2024/01/15 11:10:45;;;;;;;6.17;4.00;;;6.60;99.90;;;;;;5011974;28;20238;-57
2024/01/15 11:13:15;;;;;;;5.60;3.20;;;6.50;99.90;;;;;;4990128;28;20243;-58
2024/01/15 11:16:04;;;;;;;7.63;3.23;;;6.40;99.90;;;;;;5011580;28;20695;-57
2024/01/15 11:18:32;;;;;;;5.07;2.90;;;6.30;99.90;;;;;;5007352;28;20214;-58
2024/01/15 11:21:21;;;;;;;5.73;3.20;;;6.30;99.90;;;;;;5011460;28;20327;-57
2024/01/15 11:23:49;;;;;;;4.77;3.43;;;6.20;99.90;;;;;;5011446;28;20217;-54
2024/01/15 11:26:33;;;;;;;6.33;3.10;;;6.00;99.90;;;;;;5011679;28;20207;-58
2024/01/15 11:29:02;;;;;;;6.77;3.97;;;5.80;99.90;;;;;;5011582;28;20215;-57
2024/01/15 11:32:00;;;;;;;5.80;3.17;;;5.60;99.90;;;;;;5014040;28;20281;-58
2024/01/15 11:34:58;;;;;;;5.87;3.07;;;5.60;99.90;;;;;;5015326;28;20314;-56
2024/01/15 11:37:25;;;;;;;4.20;2.80;;;5.40;99.90;;;;;;5005191;28;20556;-57
2024/01/15 11:39:56;;;;;;;4.30;2.87;;;5.30;99.90;;;;;;5015437;28;20214;-57
2024/01/15 11:42:24;;;;;;;7.50;3.43;;;5.20;99.90;;;;;;5015568;28;20234;-55
2024/01/15 11:44:51;;;;;;;5.67;3.30;;;5.10;99.90;;;;;;5015436;28;20214;-58
2024/01/15 11:47:42;;;;;;;5.27;2.77;;;5.10;99.90;;;;;;5015714;28;20656;-58
2024/01/15 11:50:11;;;;;;;5.90;3.47;;;5.30;99.90;;;;;;5000696;28;20269;-57
2024/01/15 11:52:39;;;;;;;4.67;3.10;;;5.40;99.90;;;;;;5015478;28;20211;-58
2024/01/15 11:55:14;;;;;;;5.77;3.53;;;5.50;99.90;;;;;;4991348;28;20207;-58
2024/01/15 11:57:46;;;;;;;4.50;3.20;;;5.40;99.90;;;;;;5015449;28;20217;-56
2024/01/15 12:00:14;;;;;;;5.90;3.50;;;5.30;99.90;;;;;;5007287;28;20621;-57
2024/01/15 12:02:43;;;;;;;5.17;3.43;;;5.30;99.90;;;;;;5015152;28;20237;-58
2024/01/15 12:05:12;;;;;;;5.80;2.97;;;5.30;99.90;;;;;;5015206;28;20545;-57
2024/01/15 12:07:39;;;;;;;5.57;3.40;;;5.20;99.90;;;;;;5015463;28;20250;-58
2024/01/15 12:10:11;;;;;;;5.27;3.13;;;5.20;99.90;;;;;;5015057;28;20253;-57
2024/01/15 12:12:54;;;;;;;4.67;3.40;;;5.20;99.90;;;;;;5015244;28;20207;-56
2024/01/15 12:15:21;;;;;;;6.97;3.67;;;5.30;99.90;;;;;;5003083;28;20604;-56
2024/01/15 12:17:49;;;;;;;10.00;5.80;;;5.20;99.90;;;;;;5014894;28;20230;-57
2024/01/15 12:20:16;;;;;;;7.13;4.00;;;5.10;99.90;;;;;;5014826;28;20211;-58
2024/01/15 12:22:43;;;;;;;5.23;3.80;;;5.10;99.90;;;;;;5014806;28;20288;-59
2024/01/15 12:25:10;;;;;;;6.40;3.70;;;4.90;99.90;;;;;;5014390;28;20203;-58
2024/01/15 12:27:37;;;;;;;6.83;4.20;;;4.80;99.90;;;;;;5014598;28;20652;-59
2024/01/15 12:30:05;;;;;;;8.00;5.00;;;4.70;99.90;;;;;;5014631;28;20211;-57
2024/01/15 12:32:31;;;;;;;7.37;4.77;;;4.60;99.90;;;;;;5015082;28;20203;-58
2024/01/15 12:35:01;;;;;;;7.53;3.60;;;4.40;99.90;;;;;;5014471;28;20257;-58
2024/01/15 12:37:28;;;;;;;8.40;4.03;;;4.40;99.90;;;;;;5014976;28;20211;-58
2024/01/15 12:39:55;;;;;;;7.57;4.13;;;4.30;99.90;;;;;;5014267;28;20302;-58
2024/01/15 12:42:22;;;;;;;6.33;4.30;;;4.30;99.90;;;;;;5013455;28;20645;-59
2024/01/15 12:44:49;;;;;;;6.03;4.10;;;4.30;99.90;;;;;;5013962;28;20207;-58
2024/01/15 12:47:18;;;;;;;6.07;4.20;;;4.20;99.90;;;;;;5014688;28;20214;-57
2024/01/15 12:49:47;;;;;;;7.50;4.03;;;4.20;99.90;;;;;;5014161;28;20238;-58